.
WxDataArchive / Data Records for 2006-08-15
2006-08-14 August 2006 2006-08-16

Data Records for Tuesday, 15 August 2006

Time	Temp	Chill	HIndex	Humid	Dewpt	 Wind 	HiWind	WindDir	Rain 	Barom 
-----	----	-----	------	-----	-----	------	------	-------	-----	----- 
00:00	65.8	65.8	65.8	83	60.5	0	0	---	0.00	29.865 
00:05	65.5	65.5	65.5	84	60.5	0	0	---	0.00	29.865 
00:10	65.0	65.0	65.0	84	60.0	0	0	---	0.00	29.865 
00:15	64.7	64.7	64.7	85	60.1	0	0	---	0.00	29.868 
00:20	64.3	64.3	64.3	85	59.7	0	0	---	0.00	29.868 
00:25	64.0	64.0	64.0	86	59.7	0	0	---	0.00	29.868 
00:30	63.7	63.7	63.7	87	59.8	0	0	---	0.00	29.879 
00:35	63.4	63.4	63.4	87	59.5	0	0	---	0.00	29.879 
00:40	63.1	63.1	63.1	87	59.2	0	0	---	0.00	29.879 
00:45	62.9	62.9	62.9	88	59.3	0	0	---	0.00	29.892 
00:50	62.6	62.6	62.6	88	59.0	0	0	---	0.00	29.892 
00:55	62.3	62.3	62.3	88	58.7	0	0	---	0.00	29.892 
01:00	62.0	62.0	62.0	88	58.4	0	0	---	0.00	29.900 
01:05	61.8	61.8	61.8	90	58.8	0	0	---	0.00	29.900 
01:10	61.6	61.6	61.6	90	58.6	0	0	---	0.00	29.900 
01:15	61.5	61.5	61.5	91	58.8	0	0	---	0.00	29.903 
01:20	61.3	61.3	61.3	91	58.6	0	0	---	0.00	29.903 
01:25	61.0	61.0	61.0	91	58.4	0	0	---	0.00	29.903 
01:30	61.0	61.0	61.0	92	58.7	0	0	---	0.00	29.909 
01:35	60.9	60.9	60.9	92	58.6	0	0	---	0.00	29.909 
01:40	60.7	60.7	60.7	92	58.4	0	0	---	0.00	29.909 
01:45	60.4	60.4	60.4	92	58.1	0	0	---	0.00	29.904 
01:50	60.2	60.2	60.2	92	57.9	0	0	---	0.00	29.904 
01:55	59.9	59.9	59.9	92	57.6	0	0	---	0.00	29.904 
02:00	59.8	59.8	59.8	92	57.5	0	0	---	0.00	29.901 
02:05	59.6	59.6	59.6	92	57.3	0	0	---	0.00	29.901 
02:10	59.5	59.5	59.5	92	57.2	0	0	---	0.00	29.901 
02:15	59.3	59.3	59.3	92	57.0	0	0	---	0.00	29.902 
02:20	59.2	59.2	59.2	92	56.9	0	0	---	0.00	29.902 
02:25	59.0	59.0	59.0	93	57.0	0	0	---	0.00	29.902 
02:30	58.9	58.9	58.9	92	56.6	0	0	---	0.00	29.899 
02:35	58.9	58.9	58.9	93	56.9	0	0	---	0.00	29.899 
02:40	58.7	58.7	58.7	93	56.7	0	0	---	0.00	29.899 
02:45	58.6	58.6	58.6	93	56.6	0	0	---	0.00	29.900 
02:50	58.6	58.6	58.6	93	56.6	0	0	---	0.00	29.900 
02:55	58.7	58.7	58.7	94	57.0	0	0	---	0.00	29.900 
03:00	58.7	58.7	58.7	94	57.0	0	0	---	0.00	29.903 
03:05	58.9	58.9	58.9	94	57.2	0	0	---	0.00	29.903 
03:10	59.0	59.0	59.0	94	57.3	0	0	---	0.00	29.903 
03:15	59.2	59.2	59.2	95	57.8	0	0	---	0.00	29.904 
03:20	59.2	59.2	59.2	95	57.8	0	0	---	0.00	29.904 
03:25	59.5	59.5	59.5	95	58.1	0	0	---	0.00	29.904 
03:30	59.9	59.9	59.9	95	58.5	0	0	---	0.00	29.903 
03:35	60.1	60.1	60.1	95	58.7	0	0	---	0.00	29.903 
03:40	59.9	59.9	59.9	95	58.5	0	0	---	0.00	29.903 
03:45	59.9	59.9	59.9	95	58.5	0	0	---	0.00	29.904 
03:50	59.8	59.8	59.8	95	58.4	0	0	---	0.00	29.904 
03:55	59.6	59.6	59.6	94	57.9	0	0	---	0.00	29.904 
04:00	59.5	59.5	59.5	94	57.8	0	0	---	0.00	29.907 
04:05	59.5	59.5	59.5	94	57.8	0	0	---	0.00	29.907 
04:10	59.5	59.5	59.5	94	57.8	0	0	---	0.00	29.907 
04:15	59.3	59.3	59.3	94	57.6	0	0	---	0.00	29.910 
04:20	59.2	59.2	59.2	94	57.5	0	0	---	0.00	29.910 
04:25	59.0	59.0	59.0	94	57.3	0	0	---	0.00	29.910 
04:30	59.0	59.0	59.0	94	57.3	0	0	---	0.00	29.915 
04:35	59.0	59.0	59.0	94	57.3	0	0	---	0.00	29.915 
04:40	58.9	58.9	58.9	94	57.2	0	0	---	0.00	29.915 
04:45	58.7	58.7	58.7	94	57.0	0	0	---	0.00	29.916 
04:50	58.6	58.6	58.6	94	56.9	0	0	---	0.00	29.916 
04:55	58.6	58.6	58.6	94	56.9	0	0	---	0.00	29.916 
05:00	58.4	58.4	58.4	94	56.7	0	0	---	0.00	29.917 
05:05	58.4	58.4	58.4	94	56.7	0	0	---	0.00	29.917 
05:10	58.4	58.4	58.4	94	56.7	0	0	---	0.00	29.917 
05:15	58.3	58.3	58.3	94	56.6	0	0	---	0.00	29.918 
05:20	58.1	58.1	58.1	94	56.4	0	0	---	0.00	29.918 
05:25	58.0	58.0	58.0	94	56.3	0	0	---	0.00	29.918 
05:30	58.0	58.0	58.0	94	56.3	0	0	---	0.00	29.919 
05:35	57.8	57.8	57.8	94	56.1	0	0	---	0.00	29.919 
05:40	57.8	57.8	57.8	94	56.1	0	0	---	0.00	29.919 
05:45	57.8	57.8	57.8	94	56.1	0	0	---	0.00	29.920 
05:50	57.6	57.6	57.6	94	55.9	0	0	---	0.00	29.920 
05:55	57.5	57.5	57.5	94	55.8	0	0	---	0.00	29.920 
06:00	57.5	57.5	57.5	94	55.8	0	0	---	0.00	29.926 
06:05	57.5	57.5	57.5	94	55.8	0	0	---	0.00	29.926 
06:10	57.3	57.3	57.3	94	55.6	0	0	---	0.00	29.926 
06:15	57.3	57.3	57.3	94	55.6	0	0	---	0.00	29.929 
06:20	57.2	57.2	57.2	94	55.5	0	0	---	0.00	29.929 
06:25	57.2	57.2	57.2	94	55.5	0	0	---	0.00	29.929 
06:30	57.2	57.2	57.2	94	55.5	0	0	---	0.00	29.932 
06:35	57.0	57.0	57.0	94	55.3	0	0	---	0.00	29.932 
06:40	57.2	57.2	57.2	94	55.5	0	0	---	0.00	29.932 
06:45	57.2	57.2	57.2	94	55.5	0	0	---	0.00	29.935 
06:50	57.2	57.2	57.2	94	55.5	0	0	---	0.00	29.935 
06:55	57.2	57.2	57.2	94	55.5	0	0	---	0.00	29.935 
07:00	57.0	57.0	57.0	94	55.3	0	0	---	0.00	29.942 
07:05	57.0	57.0	57.0	94	55.3	0	0	---	0.00	29.942 
07:10	57.0	57.0	57.0	94	55.3	0	0	---	0.00	29.942 
07:15	57.0	57.0	57.0	94	55.3	0	0	---	0.00	29.950 
07:20	57.0	57.0	57.0	94	55.3	0	0	---	0.00	29.950 
07:25	57.0	57.0	57.0	94	55.3	0	0	---	0.00	29.950 
07:30	57.2	57.2	57.2	95	55.8	0	0	---	0.00	29.951 
07:35	57.8	57.8	57.8	95	56.4	0	0	---	0.00	29.951 
07:40	58.6	58.6	58.6	95	57.2	0	0	---	0.00	29.951 
07:45	59.3	59.3	59.3	94	57.6	0	1	315	0.00	29.951 
07:50	60.1	60.1	60.1	91	57.5	0	1	315	0.00	29.951 
07:55	61.0	61.0	61.0	88	57.4	0	1	315	0.00	29.951 
08:00	62.0	62.0	62.0	86	57.8	0	1	315	0.00	29.950 
08:05	62.6	62.6	62.6	84	57.7	0	1	315	0.00	29.950 
08:10	63.2	63.2	63.2	83	57.9	0	2	315	0.00	29.950 
08:15	63.9	63.9	63.9	81	57.9	1	2	315	0.00	29.953 
08:20	64.3	64.3	64.3	81	58.3	1	2	315	0.00	29.953 
08:25	65.0	65.0	65.0	80	58.7	1	3	315	0.00	29.953 
08:30	65.5	65.5	65.5	79	58.8	0	2	315	0.00	29.953 
08:35	66.0	66.0	66.0	80	59.6	0	2	315	0.00	29.953 
08:40	66.6	66.6	66.6	78	59.5	1	4	248	0.00	29.953 
08:45	66.9	66.9	66.9	77	59.4	1	2	248	0.00	29.959 
08:50	67.4	67.4	67.4	76	59.6	1	2	315	0.00	29.959 
08:55	68.1	68.1	68.1	76	60.2	1	2	315	0.00	29.959 
09:00	68.6	68.6	68.6	74	60.0	1	3	315	0.00	29.959 
09:05	69.1	69.1	69.1	74	60.5	1	4	248	0.00	29.959 
09:10	69.4	69.4	69.4	73	60.4	1	4	292	0.00	29.959 
09:15	69.9	69.9	69.9	72	60.4	1	2	292	0.00	29.960 
09:20	70.6	70.6	70.6	73	61.5	0	1	292	0.00	29.960 
09:25	70.9	70.9	70.9	69	60.2	1	2	292	0.00	29.960 
09:30	71.5	71.5	71.5	69	60.8	0	2	270	0.00	29.965 
09:35	72.0	72.0	72.0	67	60.4	1	3	292	0.00	29.965 
09:40	72.3	72.3	72.3	68	61.1	0	2	292	0.00	29.965 
09:45	72.8	72.8	72.8	68	61.6	0	2	292	0.00	29.964 
09:50	73.3	73.3	73.3	65	60.8	1	3	292	0.00	29.964 
09:55	73.2	73.2	73.2	65	60.7	1	3	292	0.00	29.964 
10:00	73.3	73.3	73.3	65	60.8	1	3	270	0.00	29.969 
10:05	73.7	73.7	73.7	62	59.9	1	4	0	0.00	29.969 
10:10	74.0	74.0	74.0	65	61.5	1	3	270	0.00	29.969 
10:15	74.2	74.2	74.2	64	61.2	1	2	270	0.00	29.972 
10:20	74.9	74.9	74.9	62	61.0	1	2	270	0.00	29.972 
10:25	75.1	75.1	77.4	61	60.7	1	3	270	0.00	29.972 
10:30	75.4	75.4	77.6	61	61.0	1	3	315	0.00	29.973 
10:35	76.0	76.0	78.0	59	60.6	1	3	315	0.00	29.973 
10:40	76.3	76.3	78.2	58	60.4	1	4	270	0.00	29.973 
10:45	76.3	76.3	78.3	57	59.9	1	4	315	0.00	29.975 
10:50	76.5	76.5	78.4	55	59.1	1	3	292	0.00	29.975 
10:55	76.8	76.8	78.6	56	59.9	1	2	292	0.00	29.975 
11:00	77.4	77.4	79.0	55	59.9	1	3	315	0.00	29.974 
11:05	77.6	77.6	79.1	53	59.1	1	3	270	0.00	29.974 
11:10	78.1	78.1	79.5	53	59.6	0	3	202	0.00	29.974 
11:15	78.3	78.3	79.6	52	59.2	1	3	248	0.00	29.976 
11:20	78.6	78.6	79.8	53	60.0	1	3	315	0.00	29.976 
11:25	78.8	78.8	79.8	50	58.6	1	2	315	0.00	29.976 
11:30	78.8	78.8	79.7	49	58.0	1	2	292	0.00	29.979 
11:35	79.2	79.2	80.1	49	58.4	1	3	292	0.00	29.979 
11:40	79.6	79.6	80.3	48	58.2	0	2	202	0.00	29.979 
11:45	79.8	79.8	80.0	43	55.3	1	4	270	0.00	29.980 
11:50	79.9	79.9	80.2	44	56.0	1	3	292	0.00	29.980 
11:55	79.9	79.9	80.4	47	57.8	1	3	292	0.00	29.980 
12:00	80.1	80.1	80.4	45	56.8	1	3	270	0.00	29.981 
12:05	79.6	79.6	80.0	44	55.7	1	4	315	0.00	29.981 
12:10	80.1	80.1	80.0	40	53.6	1	3	270	0.00	29.981 
12:15	80.7	80.7	80.5	41	54.8	1	5	248	0.00	29.985 
12:20	81.4	81.4	80.8	38	53.3	2	5	248	0.00	29.985 
12:25	81.4	81.4	80.7	37	52.6	1	4	315	0.00	29.985 
12:30	81.6	81.6	80.9	38	53.5	1	3	315	0.00	29.982 
12:35	81.6	81.6	80.8	37	52.8	2	5	292	0.00	29.982 
12:40	81.4	81.4	80.5	35	51.1	2	6	315	0.00	29.982 
12:45	81.2	81.2	80.3	35	50.9	2	5	315	0.00	29.983 
12:50	81.6	81.6	80.8	37	52.8	1	3	315	0.00	29.983 
12:55	82.2	82.2	81.3	37	53.3	2	4	292	0.00	29.983 
13:00	81.8	81.8	81.1	38	53.7	2	5	315	0.00	29.983 
13:05	81.6	81.6	80.8	37	52.8	2	6	270	0.00	29.983 
13:10	81.2	81.2	80.9	41	55.2	2	6	315	0.00	29.983 
13:15	81.2	81.2	80.6	38	53.1	2	5	315	0.00	29.983 
13:20	81.4	81.4	80.8	38	53.3	2	4	292	0.00	29.983 
13:25	81.8	81.8	81.1	38	53.7	2	4	270	0.00	29.983 
13:30	82.0	82.0	81.3	39	54.6	2	4	248	0.00	29.978 
13:35	81.6	81.6	81.0	39	54.2	1	3	315	0.00	29.978 
13:40	81.6	81.6	81.0	39	54.2	2	6	315	0.00	29.978 
13:45	81.4	81.4	81.0	40	54.7	1	4	338	0.00	29.981 
13:50	81.6	81.6	80.9	38	53.5	2	5	315	0.00	29.981 
13:55	81.8	81.8	80.9	36	52.2	1	3	315	0.00	29.981 
14:00	81.8	81.8	81.0	37	53.0	1	4	292	0.00	29.981 
14:05	82.2	82.2	81.5	39	54.7	1	3	315	0.00	29.981 
14:10	83.2	83.2	82.3	38	54.9	2	5	270	0.00	29.981 
14:15	82.6	82.6	81.7	38	54.4	3	5	338	0.00	29.979 
14:20	82.2	82.2	81.1	35	51.8	2	3	315	0.00	29.979 
14:25	82.4	82.4	81.4	37	53.5	1	4	270	0.00	29.979 
14:30	82.4	82.4	81.2	35	52.0	1	3	270	0.00	29.979 
14:35	82.2	82.2	81.4	38	54.0	1	3	338	0.00	29.979 
14:40	82.6	82.6	81.6	37	53.7	2	4	338	0.00	29.979 
14:45	83.0	83.0	81.7	35	52.5	1	4	315	0.00	29.979 
14:50	82.8	82.8	81.7	36	53.1	1	4	0	0.00	29.979 
14:55	82.8	82.8	82.0	39	55.3	3	6	270	0.00	29.979 
15:00	83.0	83.0	82.0	37	54.0	2	5	315	0.00	29.983 
15:05	82.6	82.6	81.6	37	53.7	2	6	315	0.00	29.983 
15:10	82.4	82.4	81.4	37	53.5	1	3	315	0.00	29.983 
15:15	82.6	82.6	81.8	39	55.1	2	5	270	0.00	29.982 
15:20	83.2	83.2	82.1	37	54.2	2	5	270	0.00	29.982 
15:25	83.2	83.2	81.9	35	52.7	1	4	315	0.00	29.982 
15:30	83.2	83.2	82.1	37	54.2	3	9	270	0.00	29.979 
15:35	83.2	83.2	82.3	38	54.9	2	5	292	0.00	29.979 
15:40	82.4	82.4	81.6	38	54.2	1	3	270	0.00	29.979 
15:45	83.0	83.0	82.0	37	54.0	2	4	248	0.00	29.978 
15:50	83.4	83.4	82.2	36	53.6	2	4	270	0.00	29.978 
15:55	82.6	82.6	81.6	37	53.7	1	4	315	0.00	29.978 
16:00	82.8	82.8	81.9	38	54.6	2	7	270	0.00	29.977 
16:05	83.2	83.2	82.3	38	54.9	2	4	292	0.00	29.977 
16:10	83.4	83.4	82.3	37	54.4	1	3	338	0.00	29.977 
16:15	83.0	83.0	82.0	37	54.0	2	4	270	0.00	29.979 
16:20	81.8	81.8	81.1	38	53.7	1	3	270	0.00	29.979 
16:25	82.4	82.4	81.7	39	54.9	2	5	315	0.00	29.979 
16:30	82.4	82.4	81.7	39	54.9	1	3	315	0.00	29.979 
16:35	82.2	82.2	81.5	39	54.7	2	5	270	0.00	29.979 
16:40	82.8	82.8	81.9	38	54.6	2	4	270	0.00	29.979 
16:45	83.0	83.0	82.1	38	54.7	1	5	315	0.00	29.979 
16:50	83.0	83.0	82.0	37	54.0	1	4	315	0.00	29.979 
16:55	82.6	82.6	81.7	38	54.4	2	5	270	0.00	29.979 
17:00	83.0	83.0	82.3	40	56.2	2	5	270	0.00	29.978 
17:05	82.4	82.4	81.4	37	53.5	2	4	270	0.00	29.978 
17:10	82.4	82.4	81.6	38	54.2	1	3	292	0.00	29.978 
17:15	82.4	82.4	81.4	37	53.5	2	4	270	0.00	29.979 
17:20	82.6	82.6	81.7	38	54.4	2	5	270	0.00	29.979 
17:25	82.4	82.4	81.7	39	54.9	2	5	315	0.00	29.979 
17:30	82.4	82.4	81.6	38	54.2	2	5	270	0.00	29.978 
17:35	82.4	82.4	81.7	39	54.9	2	4	315	0.00	29.978 
17:40	81.8	81.8	81.2	39	54.4	2	4	338	0.00	29.978 
17:45	81.8	81.8	81.2	39	54.4	2	3	315	0.00	29.980 
17:50	81.8	81.8	81.2	39	54.4	2	5	292	0.00	29.980 
17:55	81.1	81.1	80.7	40	54.5	1	3	315	0.00	29.980 
18:00	80.7	80.7	80.6	42	55.4	1	3	315	0.00	29.984 
18:05	80.9	80.9	80.7	41	55.0	1	3	338	0.00	29.984 
18:10	81.1	81.1	80.7	40	54.5	1	3	270	0.00	29.984 
18:15	80.9	80.9	80.6	40	54.3	2	4	292	0.00	29.984 
18:20	80.9	80.9	80.6	40	54.3	2	4	292	0.00	29.984 
18:25	80.9	80.9	80.6	40	54.3	1	4	270	0.00	29.984 
18:30	80.7	80.7	80.5	41	54.8	1	3	315	0.00	29.986 
18:35	80.7	80.7	80.4	40	54.1	1	2	270	0.00	29.986 
18:40	80.7	80.7	80.4	40	54.1	1	3	270	0.00	29.986 
18:45	80.7	80.7	80.5	41	54.8	1	2	292	0.00	29.983 
18:50	80.5	80.5	80.4	41	54.6	1	6	0	0.00	29.983 
18:55	80.5	80.5	80.4	41	54.6	1	3	292	0.00	29.983 
19:00	80.3	80.3	80.2	41	54.4	0	3	292	0.00	29.988 
19:05	79.9	79.9	79.9	40	53.4	1	4	338	0.00	29.988 
19:10	79.8	79.8	79.8	40	53.3	1	2	292	0.00	29.988 
19:15	79.4	79.4	79.6	41	53.6	1	4	315	0.00	29.990 
19:20	79.2	79.2	79.5	41	53.4	1	3	315	0.00	29.990 
19:25	79.0	79.0	79.4	41	53.3	1	4	315	0.00	29.990 
19:30	78.8	78.8	79.3	42	53.7	1	3	315	0.00	29.994 
19:35	78.6	78.6	79.2	43	54.2	1	4	270	0.00	29.994 
19:40	78.3	78.3	79.1	43	53.9	1	2	270	0.00	29.994 
19:45	78.1	78.1	79.0	44	54.4	0	1	292	0.00	29.998 
19:50	77.7	77.7	78.7	43	53.4	1	3	292	0.00	29.998 
19:55	77.4	77.4	78.6	44	53.8	0	2	292	0.00	29.998 
20:00	77.0	77.0	78.5	46	54.6	0	1	292	0.00	30.004 
20:05	76.5	76.5	78.2	46	54.2	0	1	292	0.00	30.004 
20:10	76.0	76.0	78.0	46	53.7	0	1	292	0.00	30.004 
20:15	75.6	75.6	77.8	46	53.3	0	2	292	0.00	30.005 
20:20	75.3	75.3	77.7	47	53.7	0	2	292	0.00	30.005 
20:25	74.9	74.9	74.9	48	53.9	0	2	292	0.00	30.005 
20:30	74.6	74.6	74.6	48	53.6	0	1	292	0.00	30.008 
20:35	74.0	74.0	74.0	49	53.6	0	1	292	0.00	30.008 
20:40	73.5	73.5	73.5	50	53.7	0	0	---	0.00	30.008 
20:45	73.2	73.2	73.2	50	53.4	0	1	292	0.00	30.012 
20:50	72.8	72.8	72.8	51	53.6	0	2	292	0.00	30.012 
20:55	72.7	72.7	72.7	51	53.5	1	3	315	0.00	30.012 
21:00	72.5	72.5	72.5	51	53.3	0	1	315	0.00	30.021 
21:05	72.1	72.1	72.1	51	53.0	0	1	315	0.00	30.021 
21:10	71.8	71.8	71.8	52	53.2	0	1	315	0.00	30.021 
21:15	71.3	71.3	71.3	53	53.3	0	1	315	0.00	30.022 
21:20	70.9	70.9	70.9	54	53.4	0	1	315	0.00	30.022 
21:25	70.4	70.4	70.4	54	52.9	0	1	315	0.00	30.022 
21:30	69.8	69.8	69.8	56	53.4	0	1	315	0.00	30.027 
21:35	69.3	69.3	69.3	56	52.9	0	1	315	0.00	30.027 
21:40	69.1	69.1	69.1	55	52.2	0	1	315	0.00	30.027 
21:45	68.8	68.8	68.8	55	52.0	0	0	---	0.00	30.040 
21:50	68.4	68.4	68.4	55	51.6	0	0	---	0.00	30.040 
21:55	68.1	68.1	68.1	56	51.8	0	0	---	0.00	30.040 
22:00	67.6	67.6	67.6	57	51.8	0	0	---	0.00	30.045 
22:05	67.1	67.1	67.1	58	51.8	0	0	---	0.00	30.045 
22:10	66.8	66.8	66.8	58	51.5	0	0	---	0.00	30.045 
22:15	66.4	66.4	66.4	58	51.2	0	0	---	0.00	30.053 
22:20	66.3	66.3	66.3	58	51.1	0	0	---	0.00	30.053 
22:25	66.1	66.1	66.1	58	50.9	0	0	---	0.00	30.053 
22:30	65.8	65.8	65.8	58	50.6	0	0	---	0.00	30.056 
22:35	65.5	65.5	65.5	59	50.8	0	0	---	0.00	30.056 
22:40	65.0	65.0	65.0	61	51.2	0	0	---	0.00	30.056 
22:45	64.7	64.7	64.7	61	50.9	0	0	---	0.00	30.056 
22:50	64.2	64.2	64.2	62	50.9	0	0	---	0.00	30.056 
22:55	63.7	63.7	63.7	64	51.3	0	0	---	0.00	30.056 
23:00	63.1	63.1	63.1	64	50.7	0	0	---	0.00	30.059 
23:05	62.6	62.6	62.6	64	50.2	0	0	---	0.00	30.059 
23:10	62.1	62.1	62.1	65	50.2	0	0	---	0.00	30.059 
23:15	61.6	61.6	61.6	67	50.5	0	0	---	0.00	30.061 
23:20	61.2	61.2	61.2	68	50.5	0	0	---	0.00	30.061 
23:25	60.7	60.7	60.7	70	50.9	0	0	---	0.00	30.061 
23:30	60.2	60.2	60.2	71	50.8	0	0	---	0.00	30.063 
23:35	59.6	59.6	59.6	72	50.6	0	0	---	0.00	30.063 
23:40	59.2	59.2	59.2	73	50.5	0	0	---	0.00	30.063 
23:45	58.9	58.9	58.9	74	50.6	0	0	---	0.00	30.064 
23:50	58.4	58.4	58.4	75	50.5	0	0	---	0.00	30.064 
23:55	58.3	58.3	58.3	76	50.8	0	0	---	0.00	30.064 

CoCoRaHS
IN-AL-39
A2 Web Hosting
Creative Commons License
GoDaddy
Look for:

loaded 2017-10-20 19:51:17 • last modified 2010-11-18 10:43:29
Privacy PolicyDisclaimer
• wx.awcolley.com is powered by PmWiki v.2002016 •
• all content (unless otherwise noted) © 2017 A W Colley